General Aviation Weather

Text Reports

Enter one or more of the following location identifiers separated by a space:

Zip Code, Four-Character ICAO or Three-Character IATA airport codes.

METAR - Aviation Routine Weather Report
KGAF - Grafton, North Dakota
Updated at 3:35 AM GMT on December 07, 2014 (9:35 PM CST):
METAR KGAF 070335Z AUTO 16013KT 10SM SCT100 M05/M08 A3030 RMK AO2
TAF - Terminal Area Forecast
KGAF - Grafton, North Dakota
Updated at 3:35 AM GMT on December 07, 2014 (9:35 PM CST):
No TAF is currently available for this location.
Decoded:
No decoded TAF is available.
PIREP - Pilot Weather Report
KGAF - Grafton, North Dakota
Updated at 3:35 AM GMT on December 07, 2014 (9:35 PM CST):
No PIREP is currently available for this location.
AIRMET - Airmens Meteorological Information
KGAF - Grafton, North Dakota
Updated at 3:35 AM GMT on December 07, 2014 (9:35 PM CST):
No AIRMET is currently available for this location.
SIGMET - Significant Meteorological Information
KGAF - Grafton, North Dakota
Updated at 3:35 AM GMT on December 07, 2014 (9:35 PM CST):
No SIGMET is currently available for this location.
NOTAM - Notice to Airmen
KGAF - Grafton, North Dakota
Updated at 3:35 AM GMT on December 07, 2014 (9:35 PM CST):
No NOTAM is currently available for this location.
Forecast Area
KGAF - Grafton, North Dakota
Updated at 3:35 AM GMT on December 07, 2014 (9:35 PM CST):
No NOTAM is currently available for this location.
Aviation Weather Maps